sensor_id;sensor_type;location;lat;lon;timestamp;P1;durP1;ratioP1;P2;durP2;ratioP2
76123;SDS011;65173;48.066;20.976;2022-12-17T00:01:57;50.20;;;25.83;;
76123;SDS011;65173;48.066;20.976;2022-12-17T00:05:18;41.88;;;23.73;;
76123;SDS011;65173;48.066;20.976;2022-12-17T00:08:40;47.88;;;23.95;;
76123;SDS011;65173;48.066;20.976;2022-12-17T00:12:01;44.20;;;21.47;;
76123;SDS011;65173;48.066;20.976;2022-12-17T00:15:23;45.60;;;23.48;;
76123;SDS011;65173;48.066;20.976;2022-12-17T00:18:46;36.30;;;19.30;;
76123;SDS011;65173;48.066;20.976;2022-12-17T00:22:07;38.93;;;19.63;;
76123;SDS011;65173;48.066;20.976;2022-12-17T00:25:29;38.60;;;21.13;;
76123;SDS011;65173;48.066;20.976;2022-12-17T00:28:50;37.45;;;19.08;;
76123;SDS011;65173;48.066;20.976;2022-12-17T00:32:11;33.65;;;18.67;;
76123;SDS011;65173;48.066;20.976;2022-12-17T00:35:32;31.50;;;18.13;;
76123;SDS011;65173;48.066;20.976;2022-12-17T00:38:53;29.33;;;17.38;;
76123;SDS011;65173;48.066;20.976;2022-12-17T00:42:14;32.08;;;17.63;;
76123;SDS011;65173;48.066;20.976;2022-12-17T00:45:36;32.33;;;16.07;;
76123;SDS011;65173;48.066;20.976;2022-12-17T00:48:59;27.35;;;14.73;;
76123;SDS011;65173;48.066;20.976;2022-12-17T00:52:20;26.50;;;13.52;;
76123;SDS011;65173;48.066;20.976;2022-12-17T00:55:41;27.80;;;14.27;;
76123;SDS011;65173;48.066;20.976;2022-12-17T00:59:04;26.15;;;13.48;;
76123;SDS011;65173;48.066;20.976;2022-12-17T01:02:25;27.15;;;14.82;;
76123;SDS011;65173;48.066;20.976;2022-12-17T01:06:01;27.63;;;13.43;;
76123;SDS011;65173;48.066;20.976;2022-12-17T01:09:23;23.45;;;13.38;;
76123;SDS011;65173;48.066;20.976;2022-12-17T01:12:45;25.98;;;13.13;;
76123;SDS011;65173;48.066;20.976;2022-12-17T01:16:07;29.45;;;14.73;;
76123;SDS011;65173;48.066;20.976;2022-12-17T01:19:30;26.30;;;12.83;;
76123;SDS011;65173;48.066;20.976;2022-12-17T01:22:51;26.77;;;13.52;;
76123;SDS011;65173;48.066;20.976;2022-12-17T01:26:13;32.47;;;15.20;;
76123;SDS011;65173;48.066;20.976;2022-12-17T01:29:34;31.23;;;14.27;;
76123;SDS011;65173;48.066;20.976;2022-12-17T01:33:05;30.40;;;14.07;;
76123;SDS011;65173;48.066;20.976;2022-12-17T01:36:27;30.55;;;14.27;;
76123;SDS011;65173;48.066;20.976;2022-12-17T01:39:49;29.67;;;15.30;;
76123;SDS011;65173;48.066;20.976;2022-12-17T01:43:11;35.22;;;15.25;;
76123;SDS011;65173;48.066;20.976;2022-12-17T01:46:36;31.65;;;14.85;;
76123;SDS011;65173;48.066;20.976;2022-12-17T01:50:04;29.55;;;15.18;;
76123;SDS011;65173;48.066;20.976;2022-12-17T01:53:28;29.63;;;14.23;;
76123;SDS011;65173;48.066;20.976;2022-12-17T01:56:51;27.45;;;13.98;;
76123;SDS011;65173;48.066;20.976;2022-12-17T02:00:13;28.70;;;13.07;;
76123;SDS011;65173;48.066;20.976;2022-12-17T02:03:37;23.43;;;12.50;;
76123;SDS011;65173;48.066;20.976;2022-12-17T02:14:39;31.95;;;14.48;;
76123;SDS011;65173;48.066;20.976;2022-12-17T02:18:06;29.48;;;14.70;;
76123;SDS011;65173;48.066;20.976;2022-12-17T02:21:31;30.65;;;15.27;;
76123;SDS011;65173;48.066;20.976;2022-12-17T02:24:58;32.10;;;14.98;;
76123;SDS011;65173;48.066;20.976;2022-12-17T02:28:29;29.93;;;13.90;;
76123;SDS011;65173;48.066;20.976;2022-12-17T02:31:52;29.27;;;15.05;;
76123;SDS011;65173;48.066;20.976;2022-12-17T02:35:18;31.10;;;14.43;;
76123;SDS011;65173;48.066;20.976;2022-12-17T02:38:44;34.77;;;15.13;;
76123;SDS011;65173;48.066;20.976;2022-12-17T02:42:05;31.95;;;15.93;;
76123;SDS011;65173;48.066;20.976;2022-12-17T02:45:28;32.53;;;15.57;;
76123;SDS011;65173;48.066;20.976;2022-12-17T02:48:51;27.25;;;13.00;;
76123;SDS011;65173;48.066;20.976;2022-12-17T02:52:12;27.63;;;13.60;;
76123;SDS011;65173;48.066;20.976;2022-12-17T02:55:37;31.98;;;14.63;;
76123;SDS011;65173;48.066;20.976;2022-12-17T02:59:00;30.75;;;14.43;;
76123;SDS011;65173;48.066;20.976;2022-12-17T03:02:21;32.87;;;15.90;;
76123;SDS011;65173;48.066;20.976;2022-12-17T03:05:43;43.10;;;19.30;;
76123;SDS011;65173;48.066;20.976;2022-12-17T03:09:04;37.38;;;17.48;;
76123;SDS011;65173;48.066;20.976;2022-12-17T03:12:26;39.27;;;17.87;;
76123;SDS011;65173;48.066;20.976;2022-12-17T03:15:48;34.10;;;17.00;;
76123;SDS011;65173;48.066;20.976;2022-12-17T03:19:09;32.53;;;15.85;;
76123;SDS011;65173;48.066;20.976;2022-12-17T03:22:31;34.78;;;15.52;;
76123;SDS011;65173;48.066;20.976;2022-12-17T03:25:53;28.42;;;13.50;;
76123;SDS011;65173;48.066;20.976;2022-12-17T03:29:17;30.75;;;14.13;;
76123;SDS011;65173;48.066;20.976;2022-12-17T03:32:38;36.45;;;16.10;;
76123;SDS011;65173;48.066;20.976;2022-12-17T03:36:00;34.27;;;15.73;;
76123;SDS011;65173;48.066;20.976;2022-12-17T03:39:21;39.53;;;16.10;;
76123;SDS011;65173;48.066;20.976;2022-12-17T03:42:43;30.67;;;14.25;;
76123;SDS011;65173;48.066;20.976;2022-12-17T03:46:04;30.90;;;13.97;;
76123;SDS011;65173;48.066;20.976;2022-12-17T03:49:25;34.88;;;13.35;;
76123;SDS011;65173;48.066;20.976;2022-12-17T03:52:47;26.27;;;13.73;;
76123;SDS011;65173;48.066;20.976;2022-12-17T03:56:08;32.40;;;14.52;;
76123;SDS011;65173;48.066;20.976;2022-12-17T03:59:30;32.03;;;14.35;;
76123;SDS011;65173;48.066;20.976;2022-12-17T04:02:52;32.85;;;14.93;;
76123;SDS011;65173;48.066;20.976;2022-12-17T04:06:13;28.40;;;12.90;;
76123;SDS011;65173;48.066;20.976;2022-12-17T04:09:35;28.33;;;11.60;;
76123;SDS011;65173;48.066;20.976;2022-12-17T04:12:57;14.52;;;6.22;;
76123;SDS011;65173;48.066;20.976;2022-12-17T04:16:18;20.73;;;9.23;;
76123;SDS011;65173;48.066;20.976;2022-12-17T04:19:39;29.03;;;13.53;;
76123;SDS011;65173;48.066;20.976;2022-12-17T04:23:00;26.00;;;9.93;;
76123;SDS011;65173;48.066;20.976;2022-12-17T04:26:21;26.40;;;10.88;;
76123;SDS011;65173;48.066;20.976;2022-12-17T04:29:43;24.70;;;11.13;;
76123;SDS011;65173;48.066;20.976;2022-12-17T04:33:04;29.63;;;13.27;;
76123;SDS011;65173;48.066;20.976;2022-12-17T04:36:26;19.55;;;9.00;;
76123;SDS011;65173;48.066;20.976;2022-12-17T04:39:47;29.45;;;11.75;;
76123;SDS011;65173;48.066;20.976;2022-12-17T04:43:10;29.03;;;12.80;;
76123;SDS011;65173;48.066;20.976;2022-12-17T04:46:32;21.08;;;10.65;;
76123;SDS011;65173;48.066;20.976;2022-12-17T04:49:54;26.02;;;11.30;;
76123;SDS011;65173;48.066;20.976;2022-12-17T04:53:15;23.07;;;11.33;;
76123;SDS011;65173;48.066;20.976;2022-12-17T04:56:37;28.70;;;10.73;;
76123;SDS011;65173;48.066;20.976;2022-12-17T04:59:58;22.88;;;10.27;;
76123;SDS011;65173;48.066;20.976;2022-12-17T05:03:20;27.58;;;11.27;;
76123;SDS011;65173;48.066;20.976;2022-12-17T05:06:42;26.52;;;11.18;;
76123;SDS011;65173;48.066;20.976;2022-12-17T05:10:03;29.98;;;11.88;;
76123;SDS011;65173;48.066;20.976;2022-12-17T05:13:26;19.52;;;10.07;;
76123;SDS011;65173;48.066;20.976;2022-12-17T05:16:47;23.60;;;13.03;;
76123;SDS011;65173;48.066;20.976;2022-12-17T05:20:08;18.75;;;8.90;;
76123;SDS011;65173;48.066;20.976;2022-12-17T05:23:30;25.88;;;11.68;;
76123;SDS011;65173;48.066;20.976;2022-12-17T05:26:51;26.23;;;13.20;;
76123;SDS011;65173;48.066;20.976;2022-12-17T05:30:13;27.02;;;11.85;;
76123;SDS011;65173;48.066;20.976;2022-12-17T05:33:34;22.40;;;9.50;;
76123;SDS011;65173;48.066;20.976;2022-12-17T05:36:55;25.40;;;11.80;;
76123;SDS011;65173;48.066;20.976;2022-12-17T05:40:16;23.58;;;11.20;;
76123;SDS011;65173;48.066;20.976;2022-12-17T05:43:38;28.17;;;12.43;;
76123;SDS011;65173;48.066;20.976;2022-12-17T05:46:59;25.90;;;11.63;;
76123;SDS011;65173;48.066;20.976;2022-12-17T05:50:20;26.43;;;12.00;;
76123;SDS011;65173;48.066;20.976;2022-12-17T05:53:43;25.17;;;11.45;;
76123;SDS011;65173;48.066;20.976;2022-12-17T05:57:04;33.25;;;13.50;;
76123;SDS011;65173;48.066;20.976;2022-12-17T06:00:25;23.33;;;10.60;;
76123;SDS011;65173;48.066;20.976;2022-12-17T06:03:47;27.17;;;11.30;;
76123;SDS011;65173;48.066;20.976;2022-12-17T06:07:08;26.63;;;14.25;;
76123;SDS011;65173;48.066;20.976;2022-12-17T06:10:29;28.02;;;12.98;;
76123;SDS011;65173;48.066;20.976;2022-12-17T06:13:51;29.23;;;13.20;;
76123;SDS011;65173;48.066;20.976;2022-12-17T06:17:12;27.33;;;11.90;;
76123;SDS011;65173;48.066;20.976;2022-12-17T06:20:33;26.75;;;11.88;;
76123;SDS011;65173;48.066;20.976;2022-12-17T06:23:54;25.30;;;11.20;;
76123;SDS011;65173;48.066;20.976;2022-12-17T06:27:16;16.13;;;8.35;;
76123;SDS011;65173;48.066;20.976;2022-12-17T06:30:37;23.88;;;11.10;;
76123;SDS011;65173;48.066;20.976;2022-12-17T06:33:58;30.70;;;11.87;;
76123;SDS011;65173;48.066;20.976;2022-12-17T06:37:19;15.02;;;8.15;;
76123;SDS011;65173;48.066;20.976;2022-12-17T06:40:40;20.02;;;9.45;;
76123;SDS011;65173;48.066;20.976;2022-12-17T06:44:02;18.55;;;8.50;;
76123;SDS011;65173;48.066;20.976;2022-12-17T06:47:23;20.58;;;9.52;;
76123;SDS011;65173;48.066;20.976;2022-12-17T06:50:45;21.38;;;10.82;;
76123;SDS011;65173;48.066;20.976;2022-12-17T06:54:06;23.27;;;10.13;;
76123;SDS011;65173;48.066;20.976;2022-12-17T06:57:28;23.73;;;11.07;;
76123;SDS011;65173;48.066;20.976;2022-12-17T07:00:51;23.30;;;11.30;;
76123;SDS011;65173;48.066;20.976;2022-12-17T07:04:13;25.92;;;10.70;;
76123;SDS011;65173;48.066;20.976;2022-12-17T07:07:34;21.47;;;10.57;;
76123;SDS011;65173;48.066;20.976;2022-12-17T07:10:58;23.70;;;12.07;;
76123;SDS011;65173;48.066;20.976;2022-12-17T07:14:20;24.60;;;11.85;;
76123;SDS011;65173;48.066;20.976;2022-12-17T07:17:41;22.92;;;9.20;;
76123;SDS011;65173;48.066;20.976;2022-12-17T07:21:13;23.70;;;9.23;;
76123;SDS011;65173;48.066;20.976;2022-12-17T07:24:35;15.00;;;7.68;;
76123;SDS011;65173;48.066;20.976;2022-12-17T07:27:56;14.88;;;6.63;;
76123;SDS011;65173;48.066;20.976;2022-12-17T07:31:17;16.77;;;7.80;;
76123;SDS011;65173;48.066;20.976;2022-12-17T07:34:39;15.88;;;6.68;;
76123;SDS011;65173;48.066;20.976;2022-12-17T07:38:00;19.80;;;7.75;;
76123;SDS011;65173;48.066;20.976;2022-12-17T07:41:23;22.87;;;10.20;;
76123;SDS011;65173;48.066;20.976;2022-12-17T07:44:45;23.38;;;10.82;;
76123;SDS011;65173;48.066;20.976;2022-12-17T07:48:06;24.33;;;11.23;;
76123;SDS011;65173;48.066;20.976;2022-12-17T07:51:27;22.63;;;9.55;;
76123;SDS011;65173;48.066;20.976;2022-12-17T07:54:49;24.50;;;10.50;;
76123;SDS011;65173;48.066;20.976;2022-12-17T07:58:16;19.60;;;10.27;;
76123;SDS011;65173;48.066;20.976;2022-12-17T08:01:37;19.88;;;10.23;;
76123;SDS011;65173;48.066;20.976;2022-12-17T08:04:59;25.20;;;11.17;;
76123;SDS011;65173;48.066;20.976;2022-12-17T08:08:21;18.52;;;8.98;;
76123;SDS011;65173;48.066;20.976;2022-12-17T08:11:42;22.17;;;10.60;;
76123;SDS011;65173;48.066;20.976;2022-12-17T08:15:04;22.20;;;9.87;;
76123;SDS011;65173;48.066;20.976;2022-12-17T08:18:26;21.77;;;10.40;;
76123;SDS011;65173;48.066;20.976;2022-12-17T08:21:47;24.23;;;11.68;;
76123;SDS011;65173;48.066;20.976;2022-12-17T08:25:09;28.58;;;12.60;;
76123;SDS011;65173;48.066;20.976;2022-12-17T08:28:30;28.95;;;11.82;;
76123;SDS011;65173;48.066;20.976;2022-12-17T08:31:52;27.52;;;10.93;;
76123;SDS011;65173;48.066;20.976;2022-12-17T08:35:13;27.80;;;13.35;;
76123;SDS011;65173;48.066;20.976;2022-12-17T08:38:55;27.73;;;13.60;;
76123;SDS011;65173;48.066;20.976;2022-12-17T08:42:24;28.30;;;11.90;;
76123;SDS011;65173;48.066;20.976;2022-12-17T08:45:46;28.13;;;13.00;;
76123;SDS011;65173;48.066;20.976;2022-12-17T08:49:08;37.90;;;13.93;;
76123;SDS011;65173;48.066;20.976;2022-12-17T08:52:30;26.40;;;11.18;;
76123;SDS011;65173;48.066;20.976;2022-12-17T08:55:52;23.98;;;11.10;;
76123;SDS011;65173;48.066;20.976;2022-12-17T08:59:14;33.95;;;12.68;;
76123;SDS011;65173;48.066;20.976;2022-12-17T09:02:34;32.65;;;12.93;;
76123;SDS011;65173;48.066;20.976;2022-12-17T09:05:56;29.63;;;13.07;;
76123;SDS011;65173;48.066;20.976;2022-12-17T09:09:17;27.65;;;12.88;;
76123;SDS011;65173;48.066;20.976;2022-12-17T09:12:39;35.77;;;15.50;;
76123;SDS011;65173;48.066;20.976;2022-12-17T09:16:06;29.30;;;14.48;;
76123;SDS011;65173;48.066;20.976;2022-12-17T09:19:26;33.35;;;14.73;;
76123;SDS011;65173;48.066;20.976;2022-12-17T09:22:47;32.17;;;14.00;;
76123;SDS011;65173;48.066;20.976;2022-12-17T09:26:09;32.85;;;13.52;;
76123;SDS011;65173;48.066;20.976;2022-12-17T09:29:31;33.13;;;13.57;;
76123;SDS011;65173;48.066;20.976;2022-12-17T09:33:15;32.70;;;14.45;;
76123;SDS011;65173;48.066;20.976;2022-12-17T09:36:37;43.45;;;19.40;;
76123;SDS011;65173;48.066;20.976;2022-12-17T09:39:59;40.55;;;17.88;;
76123;SDS011;65173;48.066;20.976;2022-12-17T09:43:22;34.33;;;14.77;;
76123;SDS011;65173;48.066;20.976;2022-12-17T09:46:53;41.50;;;15.93;;
76123;SDS011;65173;48.066;20.976;2022-12-17T09:50:22;43.97;;;17.33;;
76123;SDS011;65173;48.066;20.976;2022-12-17T09:53:45;37.70;;;15.07;;
76123;SDS011;65173;48.066;20.976;2022-12-17T09:57:12;31.13;;;14.20;;
76123;SDS011;65173;48.066;20.976;2022-12-17T10:00:36;28.05;;;12.52;;
76123;SDS011;65173;48.066;20.976;2022-12-17T10:04:03;22.02;;;9.40;;
76123;SDS011;65173;48.066;20.976;2022-12-17T10:07:27;35.58;;;14.93;;
76123;SDS011;65173;48.066;20.976;2022-12-17T10:10:53;32.00;;;14.55;;
76123;SDS011;65173;48.066;20.976;2022-12-17T10:14:16;22.52;;;11.25;;
76123;SDS011;65173;48.066;20.976;2022-12-17T10:17:38;32.00;;;14.85;;
76123;SDS011;65173;48.066;20.976;2022-12-17T10:21:00;32.53;;;12.87;;
76123;SDS011;65173;48.066;20.976;2022-12-17T10:24:29;27.73;;;13.38;;
76123;SDS011;65173;48.066;20.976;2022-12-17T10:27:50;25.77;;;11.20;;
76123;SDS011;65173;48.066;20.976;2022-12-17T10:31:15;30.50;;;13.70;;
76123;SDS011;65173;48.066;20.976;2022-12-17T10:34:39;29.35;;;10.75;;
76123;SDS011;65173;48.066;20.976;2022-12-17T10:38:11;34.53;;;13.43;;
76123;SDS011;65173;48.066;20.976;2022-12-17T10:41:44;30.02;;;13.60;;
76123;SDS011;65173;48.066;20.976;2022-12-17T10:45:18;38.88;;;13.23;;
76123;SDS011;65173;48.066;20.976;2022-12-17T10:48:40;35.35;;;11.70;;
76123;SDS011;65173;48.066;20.976;2022-12-17T10:52:25;23.67;;;11.75;;
76123;SDS011;65173;48.066;20.976;2022-12-17T10:55:54;27.87;;;11.20;;
76123;SDS011;65173;48.066;20.976;2022-12-17T10:59:29;26.58;;;12.27;;
76123;SDS011;65173;48.066;20.976;2022-12-17T11:02:53;22.55;;;9.25;;
76123;SDS011;65173;48.066;20.976;2022-12-17T11:06:17;29.27;;;12.07;;
76123;SDS011;65173;48.066;20.976;2022-12-17T11:09:45;29.25;;;12.48;;
76123;SDS011;65173;48.066;20.976;2022-12-17T11:13:12;31.25;;;14.38;;
76123;SDS011;65173;48.066;20.976;2022-12-17T11:16:39;36.95;;;15.45;;
76123;SDS011;65173;48.066;20.976;2022-12-17T11:20:29;37.00;;;14.32;;
76123;SDS011;65173;48.066;20.976;2022-12-17T11:24:07;29.95;;;13.93;;
76123;SDS011;65173;48.066;20.976;2022-12-17T11:27:34;32.20;;;13.57;;
76123;SDS011;65173;48.066;20.976;2022-12-17T11:31:04;27.50;;;11.47;;
76123;SDS011;65173;48.066;20.976;2022-12-17T11:38:06;26.23;;;11.35;;
76123;SDS011;65173;48.066;20.976;2022-12-17T11:48:51;28.27;;;11.02;;
76123;SDS011;65173;48.066;20.976;2022-12-17T11:59:32;27.73;;;12.63;;
76123;SDS011;65173;48.066;20.976;2022-12-17T12:03:23;23.77;;;10.48;;
76123;SDS011;65173;48.066;20.976;2022-12-17T12:07:12;21.57;;;9.27;;
76123;SDS011;65173;48.066;20.976;2022-12-17T12:21:57;51.55;;;21.45;;
76123;SDS011;65173;48.066;20.976;2022-12-17T12:25:21;45.90;;;20.75;;
76123;SDS011;65173;48.066;20.976;2022-12-17T12:28:51;63.80;;;32.10;;
76123;SDS011;65173;48.066;20.976;2022-12-17T12:36:20;29.75;;;12.75;;
76123;SDS011;65173;48.066;20.976;2022-12-17T12:39:56;34.33;;;14.85;;
76123;SDS011;65173;48.066;20.976;2022-12-17T12:43:25;37.40;;;14.73;;
76123;SDS011;65173;48.066;20.976;2022-12-17T12:46:55;24.90;;;12.05;;
76123;SDS011;65173;48.066;20.976;2022-12-17T12:58:25;33.40;;;13.88;;
76123;SDS011;65173;48.066;20.976;2022-12-17T13:01:54;27.45;;;13.02;;
76123;SDS011;65173;48.066;20.976;2022-12-17T13:08:36;43.50;;;20.48;;
76123;SDS011;65173;48.066;20.976;2022-12-17T13:11:40;35.92;;;15.93;;
76123;SDS011;65173;48.066;20.976;2022-12-17T13:21:30;15.63;;;6.47;;
76123;SDS011;65173;48.066;20.976;2022-12-17T13:24:33;33.50;;;14.13;;
76123;SDS011;65173;48.066;20.976;2022-12-17T13:27:39;33.20;;;13.77;;
76123;SDS011;65173;48.066;20.976;2022-12-17T13:30:42;27.27;;;12.52;;
76123;SDS011;65173;48.066;20.976;2022-12-17T13:37:31;36.22;;;14.48;;
76123;SDS011;65173;48.066;20.976;2022-12-17T13:40:52;30.77;;;14.27;;
76123;SDS011;65173;48.066;20.976;2022-12-17T13:44:11;28.23;;;12.18;;
76123;SDS011;65173;48.066;20.976;2022-12-17T13:47:56;26.80;;;11.38;;
76123;SDS011;65173;48.066;20.976;2022-12-17T13:51:01;27.60;;;11.60;;
76123;SDS011;65173;48.066;20.976;2022-12-17T13:54:12;27.13;;;11.32;;
76123;SDS011;65173;48.066;20.976;2022-12-17T13:57:24;27.13;;;11.48;;
76123;SDS011;65173;48.066;20.976;2022-12-17T14:00:28;29.33;;;12.67;;
76123;SDS011;65173;48.066;20.976;2022-12-17T14:03:34;27.17;;;12.05;;
76123;SDS011;65173;48.066;20.976;2022-12-17T14:06:59;33.60;;;14.70;;
76123;SDS011;65173;48.066;20.976;2022-12-17T14:10:12;47.08;;;17.95;;
76123;SDS011;65173;48.066;20.976;2022-12-17T14:13:18;51.85;;;19.95;;
76123;SDS011;65173;48.066;20.976;2022-12-17T14:16:21;33.75;;;14.52;;
76123;SDS011;65173;48.066;20.976;2022-12-17T14:19:24;45.42;;;18.90;;
76123;SDS011;65173;48.066;20.976;2022-12-17T14:22:37;42.90;;;16.67;;
76123;SDS011;65173;48.066;20.976;2022-12-17T14:25:51;33.53;;;14.52;;
76123;SDS011;65173;48.066;20.976;2022-12-17T14:28:55;39.50;;;16.88;;
76123;SDS011;65173;48.066;20.976;2022-12-17T14:31:59;31.40;;;14.17;;
76123;SDS011;65173;48.066;20.976;2022-12-17T14:35:03;29.63;;;13.00;;
76123;SDS011;65173;48.066;20.976;2022-12-17T14:38:15;33.25;;;14.55;;
76123;SDS011;65173;48.066;20.976;2022-12-17T14:41:38;30.92;;;14.23;;
76123;SDS011;65173;48.066;20.976;2022-12-17T14:45:00;29.27;;;12.30;;
76123;SDS011;65173;48.066;20.976;2022-12-17T14:48:12;28.55;;;13.18;;
76123;SDS011;65173;48.066;20.976;2022-12-17T14:51:21;30.60;;;12.57;;
76123;SDS011;65173;48.066;20.976;2022-12-17T14:54:28;33.27;;;15.60;;
76123;SDS011;65173;48.066;20.976;2022-12-17T14:57:32;30.45;;;12.65;;
76123;SDS011;65173;48.066;20.976;2022-12-17T15:00:38;35.13;;;14.25;;
76123;SDS011;65173;48.066;20.976;2022-12-17T15:03:43;32.50;;;14.70;;
76123;SDS011;65173;48.066;20.976;2022-12-17T15:06:49;43.00;;;18.55;;
76123;SDS011;65173;48.066;20.976;2022-12-17T15:09:56;38.33;;;16.80;;
76123;SDS011;65173;48.066;20.976;2022-12-17T15:13:02;35.85;;;14.05;;
76123;SDS011;65173;48.066;20.976;2022-12-17T15:16:05;33.90;;;15.30;;
76123;SDS011;65173;48.066;20.976;2022-12-17T15:19:08;32.25;;;14.23;;
76123;SDS011;65173;48.066;20.976;2022-12-17T15:22:15;36.25;;;15.70;;
76123;SDS011;65173;48.066;20.976;2022-12-17T15:25:19;38.20;;;15.00;;
76123;SDS011;65173;48.066;20.976;2022-12-17T15:28:22;34.28;;;12.90;;
76123;SDS011;65173;48.066;20.976;2022-12-17T15:31:27;32.67;;;14.55;;
76123;SDS011;65173;48.066;20.976;2022-12-17T15:34:36;20.23;;;10.00;;
76123;SDS011;65173;48.066;20.976;2022-12-17T15:37:39;31.42;;;14.25;;
76123;SDS011;65173;48.066;20.976;2022-12-17T15:40:42;36.17;;;14.27;;
76123;SDS011;65173;48.066;20.976;2022-12-17T15:43:44;40.55;;;16.90;;
76123;SDS011;65173;48.066;20.976;2022-12-17T15:46:47;39.33;;;18.63;;
76123;SDS011;65173;48.066;20.976;2022-12-17T15:49:50;36.97;;;17.25;;
76123;SDS011;65173;48.066;20.976;2022-12-17T15:52:54;97.50;;;36.92;;
76123;SDS011;65173;48.066;20.976;2022-12-17T15:56:00;64.90;;;24.60;;
76123;SDS011;65173;48.066;20.976;2022-12-17T15:59:04;47.38;;;20.88;;
76123;SDS011;65173;48.066;20.976;2022-12-17T16:02:08;56.33;;;22.25;;
76123;SDS011;65173;48.066;20.976;2022-12-17T16:05:13;53.07;;;23.30;;
76123;SDS011;65173;48.066;20.976;2022-12-17T16:08:15;93.03;;;34.88;;
76123;SDS011;65173;48.066;20.976;2022-12-17T16:11:18;59.05;;;23.17;;
76123;SDS011;65173;48.066;20.976;2022-12-17T16:14:22;58.75;;;22.83;;
76123;SDS011;65173;48.066;20.976;2022-12-17T16:17:25;29.60;;;13.32;;
76123;SDS011;65173;48.066;20.976;2022-12-17T16:20:28;35.67;;;15.27;;
76123;SDS011;65173;48.066;20.976;2022-12-17T16:23:31;35.30;;;15.20;;
76123;SDS011;65173;48.066;20.976;2022-12-17T16:26:34;35.43;;;15.10;;
76123;SDS011;65173;48.066;20.976;2022-12-17T16:29:37;35.05;;;14.30;;
76123;SDS011;65173;48.066;20.976;2022-12-17T16:32:40;27.83;;;13.75;;
76123;SDS011;65173;48.066;20.976;2022-12-17T16:35:49;26.37;;;12.33;;
76123;SDS011;65173;48.066;20.976;2022-12-17T16:38:52;28.75;;;13.63;;
76123;SDS011;65173;48.066;20.976;2022-12-17T16:41:56;34.97;;;15.30;;
76123;SDS011;65173;48.066;20.976;2022-12-17T16:44:59;35.47;;;16.42;;
76123;SDS011;65173;48.066;20.976;2022-12-17T16:48:02;33.20;;;15.02;;
76123;SDS011;65173;48.066;20.976;2022-12-17T16:51:17;37.35;;;16.58;;
76123;SDS011;65173;48.066;20.976;2022-12-17T16:54:30;27.10;;;12.10;;
76123;SDS011;65173;48.066;20.976;2022-12-17T16:57:33;31.70;;;13.03;;
76123;SDS011;65173;48.066;20.976;2022-12-17T17:00:36;34.28;;;14.35;;
76123;SDS011;65173;48.066;20.976;2022-12-17T17:03:40;30.38;;;13.52;;
76123;SDS011;65173;48.066;20.976;2022-12-17T17:06:44;27.10;;;13.23;;
76123;SDS011;65173;48.066;20.976;2022-12-17T17:09:52;29.67;;;14.52;;
76123;SDS011;65173;48.066;20.976;2022-12-17T17:12:54;34.85;;;15.73;;
76123;SDS011;65173;48.066;20.976;2022-12-17T17:15:57;33.58;;;15.63;;
76123;SDS011;65173;48.066;20.976;2022-12-17T17:19:01;33.72;;;15.45;;
76123;SDS011;65173;48.066;20.976;2022-12-17T17:22:05;35.53;;;16.15;;
76123;SDS011;65173;48.066;20.976;2022-12-17T17:25:08;33.97;;;13.85;;
76123;SDS011;65173;48.066;20.976;2022-12-17T17:28:10;20.73;;;8.10;;
76123;SDS011;65173;48.066;20.976;2022-12-17T17:31:14;29.42;;;13.75;;
76123;SDS011;65173;48.066;20.976;2022-12-17T17:34:18;31.02;;;12.88;;
76123;SDS011;65173;48.066;20.976;2022-12-17T17:37:20;34.40;;;13.43;;
76123;SDS011;65173;48.066;20.976;2022-12-17T17:40:23;31.23;;;15.05;;
76123;SDS011;65173;48.066;20.976;2022-12-17T17:43:26;35.05;;;15.55;;
76123;SDS011;65173;48.066;20.976;2022-12-17T17:46:29;33.35;;;14.02;;
76123;SDS011;65173;48.066;20.976;2022-12-17T17:49:33;32.78;;;14.40;;
76123;SDS011;65173;48.066;20.976;2022-12-17T17:52:35;38.10;;;14.98;;
76123;SDS011;65173;48.066;20.976;2022-12-17T17:55:38;33.42;;;14.73;;
76123;SDS011;65173;48.066;20.976;2022-12-17T17:58:42;39.00;;;16.17;;
76123;SDS011;65173;48.066;20.976;2022-12-17T18:01:47;40.95;;;16.77;;
76123;SDS011;65173;48.066;20.976;2022-12-17T18:04:51;39.50;;;17.67;;
76123;SDS011;65173;48.066;20.976;2022-12-17T18:07:54;44.13;;;19.03;;
76123;SDS011;65173;48.066;20.976;2022-12-17T18:10:57;56.28;;;23.85;;
76123;SDS011;65173;48.066;20.976;2022-12-17T18:14:01;50.45;;;22.92;;
76123;SDS011;65173;48.066;20.976;2022-12-17T18:17:06;84.38;;;33.58;;
76123;SDS011;65173;48.066;20.976;2022-12-17T18:20:09;76.05;;;30.13;;
76123;SDS011;65173;48.066;20.976;2022-12-17T18:23:13;62.70;;;28.95;;
76123;SDS011;65173;48.066;20.976;2022-12-17T18:26:17;54.38;;;23.45;;
76123;SDS011;65173;48.066;20.976;2022-12-17T18:29:22;54.03;;;21.50;;
76123;SDS011;65173;48.066;20.976;2022-12-17T18:32:28;58.42;;;22.95;;
76123;SDS011;65173;48.066;20.976;2022-12-17T18:35:31;49.92;;;21.60;;
76123;SDS011;65173;48.066;20.976;2022-12-17T18:38:33;58.37;;;24.07;;
76123;SDS011;65173;48.066;20.976;2022-12-17T18:41:37;45.58;;;20.15;;
76123;SDS011;65173;48.066;20.976;2022-12-17T18:44:59;33.42;;;15.65;;
76123;SDS011;65173;48.066;20.976;2022-12-17T18:48:03;38.13;;;14.55;;
76123;SDS011;65173;48.066;20.976;2022-12-17T18:51:06;28.77;;;13.50;;
76123;SDS011;65173;48.066;20.976;2022-12-17T18:54:16;28.15;;;13.45;;
76123;SDS011;65173;48.066;20.976;2022-12-17T18:57:20;28.83;;;14.35;;
76123;SDS011;65173;48.066;20.976;2022-12-17T19:00:23;27.80;;;11.47;;
76123;SDS011;65173;48.066;20.976;2022-12-17T19:03:26;30.65;;;12.50;;
76123;SDS011;65173;48.066;20.976;2022-12-17T19:06:30;24.92;;;11.68;;
76123;SDS011;65173;48.066;20.976;2022-12-17T19:09:34;31.30;;;14.40;;
76123;SDS011;65173;48.066;20.976;2022-12-17T19:12:37;33.47;;;15.27;;
76123;SDS011;65173;48.066;20.976;2022-12-17T19:15:40;29.80;;;13.75;;
76123;SDS011;65173;48.066;20.976;2022-12-17T19:18:43;37.60;;;15.13;;
76123;SDS011;65173;48.066;20.976;2022-12-17T19:21:46;36.80;;;15.98;;
76123;SDS011;65173;48.066;20.976;2022-12-17T19:24:49;24.95;;;10.73;;
76123;SDS011;65173;48.066;20.976;2022-12-17T19:27:52;36.97;;;13.82;;
76123;SDS011;65173;48.066;20.976;2022-12-17T19:30:55;30.87;;;12.03;;
76123;SDS011;65173;48.066;20.976;2022-12-17T19:33:59;29.52;;;12.73;;
76123;SDS011;65173;48.066;20.976;2022-12-17T19:37:03;36.65;;;15.38;;
76123;SDS011;65173;48.066;20.976;2022-12-17T19:40:06;40.20;;;18.17;;
76123;SDS011;65173;48.066;20.976;2022-12-17T19:43:09;34.25;;;14.65;;
76123;SDS011;65173;48.066;20.976;2022-12-17T19:46:16;35.58;;;14.35;;
76123;SDS011;65173;48.066;20.976;2022-12-17T19:49:20;63.67;;;23.65;;
76123;SDS011;65173;48.066;20.976;2022-12-17T19:52:23;58.60;;;24.60;;
76123;SDS011;65173;48.066;20.976;2022-12-17T19:55:26;41.03;;;18.13;;
76123;SDS011;65173;48.066;20.976;2022-12-17T19:58:29;55.20;;;23.10;;